KGEY/GEY METAR and TAF weather

Enter ICAO airport designator
Station Type Date Time Source
KGEY METAR 2019/06/27 07:53 UTC NOAA

KGEY 270753Z AUTO 27004KT 10SM CLR 14/10 A2995 RMK AO2 SLP108 T01440100


Station Type Date Time Source
KGEY Decoded METAR 2019/06/27 07:53 UTC NOAA

SOUTH BIG HORN COUNTY AIRPORT , WY, United States (KGEY) 44-31N 108-05W 1191M
Jun 27, 2019 - 03:53 AM EDT / 2019.06.27 0753 UTC
Wind: from the W (270 degrees) at 5 MPH (4 KT):0
Visibility: 10 mile(s):0
Sky conditions: clear
Temperature: 57.9 F (14.4 C)
Dew Point: 50.0 F (10.0 C)
Relative Humidity: 74%
Pressure (altimeter): 29.95 in. Hg (1014 hPa)
ob: KGEY 270753Z AUTO 27004KT 10SM CLR 14/10 A2995 RMK AO2 SLP108 T01440100
cycle: 8

Station Type Date Time Source
KGEY TAF UTC NOAA

Error!

Example: see airport list